createdAt,value
2019-02-27T00:01:11.372Z,80.65
2019-02-27T00:03:43.404Z,80.56
2019-02-27T00:06:15.833Z,80.64
2019-02-27T00:08:46.154Z,80.65
2019-02-27T00:11:16.660Z,81.23
2019-02-27T00:13:48.185Z,80.34
2019-02-27T00:16:18.622Z,81.02
2019-02-27T00:18:49.081Z,80.78
2019-02-27T00:21:20.603Z,81.03
2019-02-27T00:23:51.279Z,80.52
2019-02-27T00:26:21.771Z,81.62
2019-02-27T00:28:55.979Z,80.86
2019-02-27T00:31:24.424Z,80.74
2019-02-27T00:33:59.514Z,80.25
2019-02-27T00:36:27.112Z,80.84
2019-02-27T00:38:58.463Z,80.03
2019-02-27T00:41:29.016Z,80.34
2019-02-27T00:44:01.351Z,80.16
2019-02-27T00:46:31.955Z,80.30
2019-02-27T00:49:02.416Z,80.29
2019-02-27T00:51:32.928Z,79.61
2019-02-27T00:54:03.539Z,80.95
2019-02-27T00:56:34.053Z,81.60
2019-02-27T00:59:04.528Z,81.60
2019-02-27T01:01:36.048Z,81.51
2019-02-27T01:04:06.591Z,79.87
2019-02-27T01:06:37.105Z,79.43
2019-02-27T01:09:07.647Z,80.87
2019-02-27T01:11:39.706Z,81.83
2019-02-27T01:14:10.172Z,81.85
2019-02-27T01:16:40.825Z,81.45
2019-02-27T01:19:11.371Z,80.16
2019-02-27T01:21:41.813Z,80.40
2019-02-27T01:24:12.345Z,80.69
2019-02-27T01:26:42.765Z,80.79
2019-02-27T01:29:15.723Z,80.65
2019-02-27T01:31:47.876Z,82.20
2019-02-27T01:34:18.338Z,81.39
2019-02-27T01:36:48.787Z,81.75
2019-02-27T01:39:19.190Z,81.35
2019-02-27T01:41:49.704Z,82.41
2019-02-27T01:44:21.339Z,82.69
2019-02-27T01:46:51.786Z,83.28
2019-02-27T01:49:22.256Z,83.27
2019-02-27T01:51:52.695Z,83.53
2019-02-27T01:54:23.158Z,84.06
2019-02-27T01:56:53.677Z,83.67
2019-02-27T01:59:24.135Z,83.37
2019-02-27T02:01:54.646Z,82.42
2019-02-27T02:04:25.152Z,82.23
2019-02-27T02:06:55.656Z,82.23
2019-02-27T02:09:33.322Z,82.15
2019-02-27T02:12:18.938Z,81.22
2019-02-27T02:15:01.640Z,81.24
2019-02-27T02:17:48.974Z,80.99
2019-02-27T02:20:45.612Z,80.91
2019-02-27T02:23:28.549Z,80.96
2019-02-27T02:26:23.525Z,81.39
2019-02-27T02:29:23.128Z,80.64
2019-02-27T02:32:16.815Z,80.71
2019-02-27T02:35:02.362Z,80.76
2019-02-27T02:37:39.100Z,80.79
2019-02-27T02:40:30.801Z,82.06
2019-02-27T02:43:24.659Z,82.03
2019-02-27T02:46:22.841Z,84.58
2019-02-27T02:49:12.997Z,84.87
2019-02-27T02:51:49.384Z,84.39
2019-02-27T02:54:29.015Z,84.43
2019-02-27T02:57:08.593Z,84.17
2019-02-27T02:59:51.055Z,84.09
2019-02-27T03:02:30.377Z,84.26
2019-02-27T03:05:26.465Z,84.37
2019-02-27T03:08:20.242Z,84.07
2019-02-27T03:11:09.866Z,83.48
2019-02-27T03:13:46.272Z,83.05
2019-02-27T03:16:19.978Z,82.54
2019-02-27T03:19:10.131Z,82.39
2019-02-27T03:22:04.523Z,81.95
2019-02-27T03:25:03.635Z,82.36
2019-02-27T03:28:05.774Z,81.76
2019-02-27T03:30:56.189Z,82.83
2019-02-27T03:34:05.902Z,82.54
2019-02-27T03:36:52.938Z,82.87
2019-02-27T03:39:35.899Z,82.31
2019-02-27T03:42:24.713Z,81.85
2019-02-27T03:44:58.424Z,81.46
2019-02-27T03:47:32.215Z,80.88
2019-02-27T03:50:25.507Z,80.85
2019-02-27T03:53:20.234Z,80.84
2019-02-27T03:56:19.691Z,81.18
2019-02-27T03:59:06.246Z,81.03
2019-02-27T04:02:05.755Z,81.95
2019-02-27T04:05:07.146Z,81.93
2019-02-27T04:07:38.847Z,82.25
2019-02-27T04:10:09.366Z,81.39
2019-02-27T04:12:39.827Z,82.04
2019-02-27T04:15:10.347Z,82.64
2019-02-27T04:17:39.847Z,82.67
2019-02-27T04:20:14.678Z,82.83
2019-02-27T04:22:42.535Z,82.78
2019-02-27T04:25:13.003Z,82.79
2019-02-27T04:27:43.457Z,82.76
2019-02-27T04:30:15.679Z,82.97
2019-02-27T04:32:48.781Z,83.25
2019-02-27T04:35:19.399Z,83.30
2019-02-27T04:37:53.930Z,84.10
2019-02-27T04:40:21.984Z,84.55
2019-02-27T04:42:52.499Z,84.56
2019-02-27T04:45:22.949Z,84.45
2019-02-27T04:47:53.496Z,83.97
2019-02-27T04:50:23.955Z,83.48
2019-02-27T04:52:57.596Z,83.46
2019-02-27T04:55:26.565Z,83.58
2019-02-27T04:57:57.009Z,83.58
2019-02-27T05:00:27.513Z,83.50
2019-02-27T05:02:57.973Z,83.85
2019-02-27T05:05:28.447Z,84.10
2019-02-27T05:07:58.881Z,84.39
2019-02-27T05:10:30.516Z,84.32
2019-02-27T05:13:01.021Z,83.83
2019-02-27T05:15:31.487Z,83.57
2019-02-27T05:18:02.012Z,82.96
2019-02-27T05:20:32.542Z,82.59
2019-02-27T05:23:04.525Z,82.91
2019-02-27T05:25:35.011Z,82.63
2019-02-27T05:28:05.530Z,83.09
2019-02-27T05:30:37.077Z,83.36
2019-02-27T05:33:07.525Z,83.18
2019-02-27T05:35:37.998Z,83.24
2019-02-27T05:38:08.433Z,83.14
2019-02-27T05:40:38.915Z,82.87
2019-02-27T05:43:13.165Z,82.47
2019-02-27T05:45:41.551Z,81.88
2019-02-27T05:48:11.993Z,81.81
2019-02-27T05:50:44.381Z,81.58
2019-02-27T05:53:14.816Z,81.23
2019-02-27T05:55:45.441Z,81.13
2019-02-27T05:58:15.878Z,80.96
2019-02-27T06:00:46.487Z,81.00
2019-02-27T06:03:18.337Z,80.92
2019-02-27T06:05:49.846Z,80.86
2019-02-27T06:08:20.435Z,80.79
2019-02-27T06:10:55.200Z,80.73
2019-02-27T06:13:23.506Z,80.77
2019-02-27T06:15:54.264Z,80.72
2019-02-27T06:18:24.759Z,80.70
2019-02-27T06:20:55.521Z,80.36
2019-02-27T06:23:27.278Z,80.42
2019-02-27T06:25:59.571Z,80.35
2019-02-27T06:28:29.872Z,80.33
2019-02-27T06:31:02.510Z,79.87
2019-02-27T06:33:34.539Z,80.13
2019-02-27T06:36:07.709Z,80.63
2019-02-27T06:38:37.442Z,80.64
2019-02-27T06:41:07.972Z,79.99
2019-02-27T06:43:38.497Z,79.86
2019-02-27T06:46:09.128Z,80.15
2019-02-27T06:48:43.026Z,79.61
2019-02-27T06:51:11.803Z,79.32
2019-02-27T06:53:42.372Z,78.55
2019-02-27T06:56:12.879Z,78.19
2019-02-27T06:58:43.407Z,78.05
2019-02-27T07:01:13.942Z,77.65
2019-02-27T07:03:44.468Z,77.79
2019-02-27T07:06:14.995Z,77.71
2019-02-27T07:08:45.625Z,77.14
2019-02-27T07:11:16.258Z,77.17
2019-02-27T07:13:46.701Z,77.30
2019-02-27T07:16:17.311Z,77.23
2019-02-27T07:18:47.843Z,76.99
2019-02-27T07:21:18.315Z,76.88
2019-02-27T07:23:48.756Z,77.07
2019-02-27T07:26:19.331Z,77.04
2019-02-27T07:28:49.954Z,77.53
2019-02-27T07:31:20.483Z,77.55
2019-02-27T07:33:51.012Z,77.25
2019-02-27T07:36:21.544Z,77.09
2019-02-27T07:38:54.330Z,77.39
2019-02-27T07:41:24.338Z,77.23
2019-02-27T07:43:55.746Z,77.02
2019-02-27T07:46:26.290Z,76.69
2019-02-27T07:48:57.327Z,76.38
2019-02-27T07:51:28.903Z,75.49
2019-02-27T07:53:59.398Z,74.92
2019-02-27T07:56:34.341Z,75.48
2019-02-27T07:59:04.844Z,76.23
2019-02-27T08:01:43.466Z,76.87
2019-02-27T08:04:07.502Z,77.39
2019-02-27T08:06:38.490Z,78.02
2019-02-27T08:09:09.164Z,78.58
2019-02-27T08:11:40.707Z,78.95
2019-02-27T08:14:13.009Z,79.18
2019-02-27T08:16:43.607Z,79.18
2019-02-27T08:19:15.215Z,79.71
2019-02-27T08:21:45.804Z,79.98
2019-02-27T08:24:16.466Z,80.15
2019-02-27T08:26:49.031Z,80.19
2019-02-27T08:29:19.133Z,80.28
2019-02-27T08:31:49.596Z,80.43
2019-02-27T08:34:20.036Z,80.46
2019-02-27T08:36:50.516Z,80.74
2019-02-27T08:39:20.948Z,80.93
2019-02-27T08:41:51.531Z,80.57
2019-02-27T08:47:00.401Z,80.29
2019-02-27T08:49:31.860Z,80.21
2019-02-27T08:52:03.409Z,80.18
2019-02-27T08:54:33.833Z,80.36
2019-02-27T08:57:04.358Z,80.15
2019-02-27T08:59:36.985Z,80.30
2019-02-27T09:02:08.387Z,80.01
2019-02-27T09:04:38.807Z,80.08
2019-02-27T09:07:09.340Z,79.96
2019-02-27T09:09:39.765Z,80.06
2019-02-27T09:12:13.119Z,79.91
2019-02-27T09:14:42.871Z,79.86
2019-02-27T09:17:13.302Z,79.30
2019-02-27T09:19:45.558Z,78.36
2019-02-27T09:22:17.119Z,76.89
2019-02-27T09:24:47.648Z,76.54
2019-02-27T09:27:18.178Z,76.48
2019-02-27T09:29:49.350Z,75.41
2019-02-27T09:32:20.506Z,73.92
2019-02-27T09:34:51.942Z,73.66
2019-02-27T09:37:22.477Z,74.87
2019-02-27T09:40:16.653Z,74.40
2019-02-27T09:42:53.144Z,73.66
2019-02-27T09:45:27.598Z,74.67
2019-02-27T09:47:59.897Z,74.37
2019-02-27T09:50:35.542Z,74.87
2019-02-27T09:53:06.017Z,74.84
2019-02-27T09:55:36.532Z,73.67
2019-02-27T09:58:11.080Z,73.63
2019-02-27T10:00:42.651Z,73.64
2019-02-27T10:03:13.265Z,73.12
2019-02-27T10:05:43.702Z,73.41
2019-02-27T10:08:14.170Z,72.77
2019-02-27T10:10:45.886Z,72.43
2019-02-27T10:13:16.805Z,72.81
2019-02-27T10:15:47.250Z,73.43
2019-02-27T10:18:18.852Z,73.35
2019-02-27T10:20:49.999Z,72.52
2019-02-27T10:23:20.676Z,72.38
2019-02-27T10:25:51.353Z,72.23
2019-02-27T10:28:22.195Z,72.25
2019-02-27T10:30:54.384Z,71.76
2019-02-27T10:33:25.901Z,72.77
2019-02-27T10:35:56.978Z,72.56
2019-02-27T10:38:27.774Z,72.45
2019-02-27T10:40:58.456Z,71.85
2019-02-27T10:43:29.317Z,71.59
2019-02-27T10:46:00.528Z,71.58
2019-02-27T10:48:31.579Z,71.64
2019-02-27T10:51:02.306Z,71.09
2019-02-27T10:53:33.145Z,71.34
2019-02-27T10:56:08.535Z,71.61
2019-02-27T10:58:45.049Z,71.21
2019-02-27T11:01:15.191Z,70.87
2019-02-27T11:03:45.974Z,70.57
2019-02-27T11:06:16.589Z,69.46
2019-02-27T11:08:47.309Z,69.57
2019-02-27T11:11:18.039Z,69.53
2019-02-27T11:13:51.769Z,70.01
2019-02-27T11:16:22.000Z,69.84
2019-02-27T11:18:52.773Z,69.82
2019-02-27T11:21:23.501Z,70.89
2019-02-27T11:23:54.144Z,70.70
2019-02-27T11:26:26.283Z,70.40
2019-02-27T11:28:57.793Z,69.69
2019-02-27T11:31:28.686Z,71.00
2019-02-27T11:34:01.104Z,70.70
2019-02-27T11:36:32.588Z,71.39
2019-02-27T11:39:04.774Z,70.50
2019-02-27T11:41:36.821Z,70.07
2019-02-27T11:44:07.371Z,71.04
2019-02-27T11:46:38.906Z,70.04
2019-02-27T11:49:09.453Z,69.24
2019-02-27T11:51:39.892Z,68.19
2019-02-27T11:54:10.376Z,68.33
2019-02-27T11:56:40.866Z,67.62
2019-02-27T11:59:12.952Z,68.50
2019-02-27T12:01:43.438Z,68.26
2019-02-27T12:04:13.906Z,66.96
2019-02-27T12:06:44.333Z,65.98
2019-02-27T12:09:14.775Z,67.57
2019-02-27T12:11:48.363Z,67.88
2019-02-27T12:14:18.963Z,68.91
2019-02-27T12:16:51.695Z,66.92
2019-02-27T12:19:21.575Z,64.70
2019-02-27T12:21:52.197Z,64.24
2019-02-27T12:24:22.636Z,63.39
2019-02-27T12:26:52.996Z,57.65
2019-02-27T12:29:24.151Z,54.13
2019-02-27T12:31:55.658Z,50.41
2019-02-27T12:34:26.102Z,48.88
2019-02-27T12:36:56.541Z,50.11
2019-02-27T12:39:27.022Z,53.04
2019-02-27T12:41:57.752Z,57.67
2019-02-27T12:44:28.226Z,54.89
2019-02-27T12:46:58.680Z,50.50
2019-02-27T12:49:29.166Z,48.70
2019-02-27T12:51:59.723Z,46.89
2019-02-27T12:54:30.271Z,46.67
2019-02-27T12:57:00.729Z,43.90
2019-02-27T12:59:33.017Z,42.91
2019-02-27T13:02:10.289Z,44.53
2019-02-27T13:04:42.666Z,41.71
2019-02-27T13:07:13.732Z,40.84
2019-02-27T13:09:44.217Z,40.23
2019-02-27T13:12:14.933Z,41.33
2019-02-27T13:14:46.902Z,41.78
2019-02-27T13:17:17.718Z,39.35
2019-02-27T13:19:48.366Z,37.53
2019-02-27T13:22:18.799Z,37.01
2019-02-27T13:24:50.260Z,37.75
2019-02-27T13:27:21.486Z,40.23
2019-02-27T13:29:55.401Z,40.27
2019-02-27T13:32:27.322Z,45.37
2019-02-27T13:34:57.173Z,46.31
2019-02-27T13:37:28.021Z,49.87
2019-02-27T13:40:00.425Z,51.59
2019-02-27T13:42:30.598Z,50.46
2019-02-27T13:45:01.076Z,48.12
2019-02-27T13:47:31.782Z,44.63
2019-02-27T13:50:03.353Z,41.70
2019-02-27T13:52:34.452Z,39.59
2019-02-27T13:55:11.149Z,39.34
2019-02-27T13:57:44.525Z,41.59
2019-02-27T14:00:31.670Z,45.18
2019-02-27T14:03:02.327Z,49.68
2019-02-27T14:05:36.977Z,52.32
2019-02-27T14:08:08.280Z,54.14
2019-02-27T14:10:39.620Z,54.74
2019-02-27T14:13:10.367Z,55.09
2019-02-27T14:15:44.815Z,56.73
2019-02-27T14:18:32.243Z,57.19
2019-02-27T14:21:05.770Z,57.40
2019-02-27T14:23:36.285Z,57.63
2019-02-27T14:26:09.098Z,57.19
2019-02-27T14:28:43.443Z,58.14
2019-02-27T14:31:13.939Z,57.92
2019-02-27T14:33:44.940Z,58.25
2019-02-27T14:36:43.185Z,58.11
2019-02-27T14:39:13.910Z,58.68
2019-02-27T14:41:48.786Z,58.50
2019-02-27T14:44:35.385Z,59.16
2019-02-27T14:47:16.523Z,59.62
2019-02-27T14:49:50.770Z,57.66
2019-02-27T14:52:21.238Z,55.18
2019-02-27T14:54:54.077Z,56.39
2019-02-27T14:57:34.369Z,57.59
2019-02-27T15:00:17.586Z,58.25
2019-02-27T15:02:48.131Z,59.00
2019-02-27T15:05:19.178Z,58.50
2019-02-27T15:07:49.795Z,58.74
2019-02-27T15:10:21.357Z,58.56
2019-02-27T15:12:55.046Z,58.57
2019-02-27T15:15:31.177Z,58.97
2019-02-27T15:18:01.938Z,59.02
2019-02-27T15:20:34.485Z,59.29
2019-02-27T15:23:04.704Z,59.35
2019-02-27T15:25:35.241Z,59.49
2019-02-27T15:28:05.731Z,60.20
2019-02-27T15:30:36.314Z,60.43
2019-02-27T15:33:06.885Z,61.25
2019-02-27T15:35:37.469Z,61.74
2019-02-27T15:38:11.234Z,62.33
2019-02-27T15:40:40.213Z,62.75
2019-02-27T15:43:11.671Z,62.55
2019-02-27T15:45:48.013Z,62.96
2019-02-27T15:48:14.665Z,63.38
2019-02-27T15:50:45.297Z,63.60
2019-02-27T15:53:15.924Z,63.77
2019-02-27T15:55:46.500Z,63.71
2019-02-27T15:58:18.023Z,63.97
2019-02-27T16:00:52.147Z,64.61
2019-02-27T16:03:22.855Z,64.98
2019-02-27T16:05:52.883Z,65.60
2019-02-27T16:08:25.466Z,65.90
2019-02-27T16:10:55.871Z,66.52
2019-02-27T16:13:26.500Z,67.16
2019-02-27T16:15:56.997Z,68.05
2019-02-27T16:18:27.616Z,68.87
2019-02-27T16:20:58.634Z,69.19
2019-02-27T16:23:29.269Z,69.34
2019-02-27T16:26:00.161Z,69.49
2019-02-27T16:28:31.343Z,69.56
2019-02-27T16:31:05.748Z,70.24
2019-02-27T16:33:35.055Z,70.87
2019-02-27T16:36:05.655Z,70.88
2019-02-27T16:38:36.327Z,71.20
2019-02-27T16:41:07.364Z,70.90
2019-02-27T16:43:38.402Z,70.80
2019-02-27T16:46:09.010Z,70.60
2019-02-27T16:48:39.610Z,70.87
2019-02-27T16:51:10.243Z,71.00
2019-02-27T16:53:40.735Z,71.07
2019-02-27T16:56:12.973Z,71.39
2019-02-27T16:58:43.581Z,71.87
2019-02-27T17:01:14.174Z,72.49
2019-02-27T17:03:49.858Z,72.72
2019-02-27T17:06:18.207Z,72.40
2019-02-27T17:08:50.881Z,72.39
2019-02-27T17:11:23.616Z,72.78
2019-02-27T17:13:54.795Z,73.22
2019-02-27T17:16:25.228Z,72.89
2019-02-27T17:18:59.178Z,72.93
2019-02-27T17:21:32.289Z,72.72
2019-02-27T17:24:02.997Z,72.93
2019-02-27T17:26:35.274Z,73.44
2019-02-27T17:29:08.045Z,73.87
2019-02-27T17:31:49.063Z,74.30
2019-02-27T17:34:14.386Z,74.70
2019-02-27T17:36:45.205Z,74.82
2019-02-27T17:39:16.367Z,75.11
2019-02-27T17:41:46.944Z,75.15
2019-02-27T17:44:17.516Z,75.30
2019-02-27T17:46:51.681Z,74.57
2019-02-27T17:49:25.400Z,74.64
2019-02-27T17:51:55.419Z,75.34
2019-02-27T17:54:31.316Z,75.62
2019-02-27T17:57:00.970Z,76.05
2019-02-27T17:59:32.612Z,75.71
2019-02-27T18:02:03.173Z,75.09
2019-02-27T18:04:33.847Z,74.86
2019-02-27T18:07:06.272Z,74.79
2019-02-27T18:09:36.994Z,75.08
2019-02-27T18:12:07.651Z,74.86
2019-02-27T18:14:43.885Z,75.15
2019-02-27T18:17:10.573Z,74.93
2019-02-27T18:19:41.557Z,75.22
2019-02-27T18:22:14.720Z,75.60
2019-02-27T18:24:44.171Z,75.44
2019-02-27T18:27:14.612Z,74.92
2019-02-27T18:29:45.088Z,74.90
2019-02-27T18:32:15.602Z,74.83
2019-02-27T18:34:46.116Z,74.71
2019-02-27T18:37:19.063Z,75.14
2019-02-27T18:39:48.790Z,76.12
2019-02-27T18:42:20.737Z,76.22
2019-02-27T18:44:51.642Z,76.08
2019-02-27T18:47:22.194Z,75.90
2019-02-27T18:49:53.068Z,76.30
2019-02-27T18:52:23.709Z,76.48
2019-02-27T18:54:55.521Z,75.85
2019-02-27T18:57:27.155Z,75.95
2019-02-27T19:00:01.404Z,75.82
2019-02-27T19:02:29.994Z,75.91
2019-02-27T19:05:00.513Z,76.05
2019-02-27T19:07:31.116Z,77.05
2019-02-27T19:10:03.788Z,77.30
2019-02-27T19:12:35.044Z,77.40
2019-02-27T19:15:11.281Z,77.73
2019-02-27T19:17:41.250Z,77.96
2019-02-27T19:20:23.621Z,77.97
2019-02-27T19:22:52.538Z,77.42
2019-02-27T19:25:23.078Z,77.48
2019-02-27T19:27:53.653Z,77.72
2019-02-27T19:30:26.102Z,77.83
2019-02-27T19:33:01.585Z,77.65
2019-02-27T19:35:28.729Z,78.06
2019-02-27T19:37:59.346Z,77.51
2019-02-27T19:40:31.198Z,78.04
2019-02-27T19:43:05.842Z,77.90
2019-02-27T19:45:36.643Z,77.34
2019-02-27T19:48:07.270Z,76.39
2019-02-27T19:50:37.802Z,75.73
2019-02-27T19:53:08.291Z,75.86
2019-02-27T19:55:38.915Z,75.46
2019-02-27T19:58:09.426Z,75.42
2019-02-27T20:00:47.916Z,75.44
2019-02-27T20:03:12.269Z,75.08
2019-02-27T20:05:42.820Z,74.40
2019-02-27T20:08:13.269Z,74.57
2019-02-27T20:10:44.239Z,73.91
2019-02-27T20:13:15.052Z,73.66
2019-02-27T20:15:46.533Z,73.31
2019-02-27T20:18:18.263Z,72.24
2019-02-27T20:20:48.865Z,72.43
2019-02-27T20:23:19.321Z,71.82
2019-02-27T20:25:49.862Z,71.43
2019-02-27T20:28:20.367Z,71.33
2019-02-27T20:30:50.906Z,70.65
2019-02-27T20:33:22.493Z,70.76
2019-02-27T20:35:55.801Z,70.55
2019-02-27T20:38:26.419Z,71.30
2019-02-27T20:40:57.039Z,70.32
2019-02-27T20:43:29.560Z,69.96
2019-02-27T20:45:59.910Z,69.65
2019-02-27T20:48:32.159Z,69.48
2019-02-27T20:51:31.098Z,69.93
2019-02-27T20:54:14.769Z,69.37
2019-02-27T20:56:55.301Z,69.23
2019-02-27T20:59:19.363Z,69.14
2019-02-27T21:01:49.965Z,68.70
2019-02-27T21:04:22.022Z,68.60
2019-02-27T21:06:52.734Z,69.07
2019-02-27T21:09:23.473Z,69.03
2019-02-27T21:11:53.975Z,69.68
2019-02-27T21:14:24.389Z,69.89
2019-02-27T21:16:54.883Z,70.16
2019-02-27T21:19:25.636Z,69.92
2019-02-27T21:21:56.285Z,70.13
2019-02-27T21:24:27.775Z,69.72
2019-02-27T21:26:58.317Z,70.04
2019-02-27T21:29:28.906Z,69.98
2019-02-27T21:32:01.596Z,70.12
2019-02-27T21:34:31.593Z,70.18
2019-02-27T21:37:02.204Z,70.02
2019-02-27T21:39:32.714Z,69.80
2019-02-27T21:42:03.212Z,69.41
2019-02-27T21:44:33.724Z,69.53
2019-02-27T21:47:04.269Z,69.27
2019-02-27T21:49:34.761Z,68.67
2019-02-27T21:52:05.285Z,68.56
2019-02-27T21:54:39.336Z,68.43
2019-02-27T21:57:08.765Z,68.75
2019-02-27T21:59:40.495Z,69.35
2019-02-27T22:02:11.751Z,69.21
2019-02-27T22:04:44.109Z,69.38
2019-02-27T22:07:14.424Z,69.78
2019-02-27T22:09:45.503Z,70.18
2019-02-27T22:12:16.128Z,69.81
2019-02-27T22:14:48.540Z,69.82
2019-02-27T22:17:18.810Z,69.66
2019-02-27T22:19:53.322Z,69.98
2019-02-27T22:22:22.509Z,70.32
2019-02-27T22:24:55.580Z,70.29
2019-02-27T22:27:25.125Z,71.01
2019-02-27T22:29:55.941Z,71.70
2019-02-27T22:32:26.406Z,71.68
2019-02-27T22:34:59.280Z,72.56
2019-02-27T22:37:30.143Z,72.51
2019-02-27T22:40:06.517Z,72.77
2019-02-27T22:42:32.805Z,73.12
2019-02-27T22:45:04.333Z,73.14
2019-02-27T22:47:35.554Z,73.20
2019-02-27T22:50:09.039Z,72.77
2019-02-27T22:52:39.509Z,72.90
2019-02-27T22:55:10.700Z,72.22
2019-02-27T22:57:41.474Z,72.55
2019-02-27T23:00:25.705Z,72.22
2019-02-27T23:02:57.781Z,72.30
2019-02-27T23:05:28.294Z,71.33
2019-02-27T23:07:59.824Z,70.57
2019-02-27T23:10:30.972Z,69.91
2019-02-27T23:13:02.400Z,70.18
2019-02-27T23:15:32.928Z,69.82
2019-02-27T23:18:05.766Z,70.05
2019-02-27T23:20:36.241Z,70.61
2019-02-27T23:23:06.703Z,70.49
2019-02-27T23:25:37.205Z,70.24
2019-02-27T23:28:07.739Z,70.15
2019-02-27T23:30:38.302Z,70.05
2019-02-27T23:33:08.888Z,69.80
2019-02-27T23:35:39.408Z,70.38
2019-02-27T23:38:09.872Z,69.75
2019-02-27T23:40:40.306Z,69.79
2019-02-27T23:43:10.769Z,69.19
2019-02-27T23:45:44.437Z,69.40
2019-02-27T23:48:15.070Z,69.24
2019-02-27T23:50:45.502Z,68.93
2019-02-27T23:53:15.970Z,68.60
2019-02-27T23:55:46.393Z,69.02
2019-02-27T23:58:16.854Z,68.39
